Haines Junction, Canada
Current Conditions -  °F | °C
As of 12:00 PM on Friday 21 Nov 2014 (Local Time) from CYDB Reporting Station
Light Snow Light Snow  
Wind Chill: -5°   Ceiling: 1000
Heat Index:   Visibility: 10mi
Dew Point:   Wind: 9mph
Humidity: 92%   Direction: 300°WNW
Pressure: 29.19"   Gusts: NA
Location:  60.75°N, 137.51°W
Report Text: CYDB 212000Z 30008KT 10SM -SN OVC010 M13/M14 A2919 RMK ST8 PCPN VRY LGT SLP946
Loading
Personal Weather Stations






























Interactive Weather Map New forecast layout! Learn more

10-Day Weather Forecast

Advertisements
Track Severe Weather on mobile